• Join FlightAware (Why Join?)
  • Login
  • US Flag 
01:33PM EST


 

Airport Tracker/Info


-or-


 

Live Flight TrackerFlight Track Log ✈ N343CW ✈ 03-Feb-2014 ✈ KPDK - KMHT

Flight Track Log - Related Links

Times and Time Zones

All times are in EST time to prevent confusion due to time zone crossing. See the N343CW flight status page for this flight to view local times or setup timezone preferences in your user account.

Time Position Orientation Groundspeed Altitude Reporting Facility
EST Latitude Longitude Course Direction KTS MPH feet Rate Location/Type
09:58AM 33.8667 -84.2500 90° East 139 160 2,800  Level Atlanta TRACON
09:59AM 33.8667 -84.2000 90° East 160 184 4,000 1,140 Climbing Atlanta TRACON
10:00AM 33.8667 -84.1500 90° East 187 215 5,100 420 Climbing Atlanta TRACON
10:01AM 33.8667 -84.0667 90° East 246 283 5,000 600 Descending Atlanta TRACON
10:03AM 33.8569 -83.9436 95° East 255 293 6,700 1,020 Climbing Atlanta Center
10:04AM 33.8547 -83.8736 92° East 233 268 7,700 1,020 Climbing Atlanta Center
10:05AM 33.8650 -83.7986 91° East 222 255 8,800 1,200 Climbing Atlanta Center
10:06AM 33.9067 -83.7408 49° Northeast 222 255 10,200 1,140 Climbing Atlanta Center
10:07AM 33.9461 -83.6781 53° Northeast 228 262 11,100 1,200 Climbing Atlanta Center
10:08AM 33.9856 -83.6153 53° Northeast 228 262 12,600 1,380 Climbing Atlanta Center
10:09AM 34.0186 -83.5575 55° Northeast 228 262 13,900 1,200 Climbing Atlanta Center
10:10AM 34.0561 -83.5022 51° Northeast 223 257 15,100 1,140 Climbing Atlanta Center
10:11AM 34.0953 -83.4392 53° Northeast 223 257 16,200 960 Climbing Atlanta Center
10:12AM 34.1369 -83.3786 50° Northeast 228 262 17,100 960 Climbing Atlanta Center
10:13AM 34.1742 -83.3156 54° Northeast 228 262 18,200 960 Climbing Atlanta Center
10:14AM 34.2153 -83.2500 53° Northeast 228 262 19,100 900 Climbing Atlanta Center
10:15AM 34.2567 -83.1892 51° Northeast 228 262 20,100 900 Climbing Atlanta Center
10:16AM 34.2981 -83.1211 54° Northeast 228 262 20,900 780 Climbing Atlanta Center
10:17AM 34.3372 -83.0528 55° Northeast 228 262 21,700 720 Climbing Atlanta Center
10:18AM 34.3844 -82.9867 49° Northeast 240 276 22,400 720 Climbing Atlanta Center
10:19AM 34.4236 -82.9156 56° Northeast 245 282 23,200 720 Climbing Atlanta Center
10:20AM 34.4667 -82.8444 54° Northeast 253 291 23,900 660 Climbing Atlanta Center
10:21AM 34.5100 -82.7758 53° Northeast 253 291 24,600 600 Climbing Atlanta Center
10:22AM 34.5550 -82.7044 53° Northeast 253 291 25,200 600 Climbing Atlanta Center
10:23AM 34.5981 -82.6358 53° Northeast 253 291 25,800 540 Climbing Atlanta Center
10:24AM 34.6411 -82.5694 52° Northeast 254 292 26,300 540 Climbing Atlanta Center
10:25AM 34.6883 -82.4953 52° Northeast 254 292 26,900 300 Climbing Atlanta Center
10:26AM 34.7333 -82.4261 52° Northeast 254 292 27,000  Climbing Atlanta Center
10:27AM 34.7822 -82.3419 55° Northeast 269 310 27,000  Level Atlanta Center
10:28AM 34.8311 -82.2597 54° Northeast 283 326 27,000  Level Atlanta Center
10:29AM 34.8819 -82.1753 54° Northeast 296 341 27,000  Level Atlanta Center
10:30AM 34.9350 -82.0931 52° Northeast 302 348 27,000  Level Atlanta Center
10:31AM 34.9858 -82.0031 55° Northeast 302 348 27,000  Level Atlanta Center
10:32AM 35.0386 -81.9231 51° Northeast 302 348 27,000  Level Atlanta Center
10:33AM 35.1003 -81.8681 36° Northeast 297 342 27,000  Level Atlanta Center
10:34AM 35.1658 -81.8081 37° Northeast 297 342 27,000  Level Atlanta Center
10:35AM 35.2336 -81.7453 37° Northeast 297 342 27,000  Level Atlanta Center
10:36AM 35.3014 -81.6847 36° Northeast 297 342 27,000  Level Atlanta Center
10:37AM 35.3689 -81.6217 37° Northeast 297 342 27,000  Level Atlanta Center
10:38AM 35.4325 -81.5561 40° Northeast 297 342 27,000  Level Atlanta Center
10:39AM 35.5022 -81.4981 34° Northeast 297 342 27,000  Level Atlanta Center
10:40AM 35.5697 -81.4372 36° Northeast 297 342 27,000  Level Atlanta Center
10:41AM 35.6369 -81.3686 40° Northeast 297 342 27,000  Level Atlanta Center
10:42AM 35.7067 -81.3050 37° Northeast 297 342 27,000  Level Atlanta Center
10:43AM 35.7697 -81.2414 39° Northeast 297 342 27,000  Level Atlanta Center
10:44AM 35.8433 -81.1697 38° Northeast 297 342 27,000  Level Atlanta Center
10:45AM 35.9128 -81.1108 34° Northeast 297 342 27,000  Level Atlanta Center
10:46AM 35.9761 -81.0519 37° Northeast 304 350 27,000  Level Atlanta Center
10:47AM 36.0453 -80.9878 37° Northeast 311 358 27,000  Level Atlanta Center
10:48AM 36.1128 -80.9261 36° Northeast 304 350 27,000  Level Atlanta Center
10:49AM 36.1736 -80.8594 41° Northeast 304 350 27,000  Level Atlanta Center
10:50AM 36.2428 -80.7950 37° Northeast 299 344 27,000  Level Atlanta Center
10:51AM 36.3097 -80.7281 39° Northeast 305 351 27,000  Level Atlanta Center
10:53AM 36.4714 -80.5822 36° Northeast 306 352 27,000  Level Washington Center
10:54AM 36.5386 -80.5194 37° Northeast 306 352 27,000  Level Washington Center
10:55AM 36.6083 -80.4514 38° Northeast 306 352 27,000 240 Level Washington Center
10:56AM 36.6733 -80.3881 38° Northeast 306 352 27,500 480 Climbing Washington Center
10:57AM 36.7297 -80.3319 39° Northeast 293 337 28,000 240 Climbing Washington Center
10:58AM 36.7906 -80.2733 38° Northeast 286 329 28,000  Level Washington Center
10:59AM 36.8556 -80.2100 38° Northeast 286 329 28,000  Level Washington Center
11:00AM 36.9250 -80.1439 37° Northeast 297 342 28,000  Level Washington Center
11:01AM 36.9986 -80.0728 38° Northeast 304 350 28,000  Level Washington Center
11:02AM 37.0678 -80.0067 37° Northeast 304 350 28,000  Level Washington Center
11:03AM 37.1350 -79.9400 38° Northeast 304 350 28,000  Level Washington Center
11:04AM 37.2042 -79.8736 37° Northeast 304 350 28,000  Level Washington Center
11:05AM 37.2625 -79.8142 39° Northeast 304 350 28,000  Level Washington Center
11:06AM 37.3317 -79.7475 37° Northeast 304 350 28,000  Level Washington Center
11:07AM 37.4006 -79.6808 38° Northeast 304 350 28,000 -120 Level Washington Center
11:08AM 37.4697 -79.6086 40° Northeast 314 361 27,800 -300 Descending Washington Center
11:09AM 37.5475 -79.5289 39° Northeast 320 368 27,500 -420 Descending Washington Center
11:10AM 37.6122 -79.4639 38° Northeast 320 368 27,000 -300 Descending Washington Center
11:11AM 37.6919 -79.3842 38° Northeast 320 368 27,000  Level Washington Center
11:12AM 37.7586 -79.3244 35° Northeast 326 375 27,000  Level Washington Center
11:13AM 37.8383 -79.2442 38° Northeast 326 375 27,000  Level Washington Center
11:14AM 37.9069 -79.1764 38° Northeast 326 375 27,000  Level Washington Center
11:15AM 37.9781 -79.1033 39° Northeast 326 375 27,000  Level Washington Center
11:16AM 38.0489 -79.0328 38° Northeast 326 375 27,000  Level Washington Center
11:17AM 38.1111 -78.9672 40° Northeast 326 375 27,000  Level Washington Center
11:18AM 38.1819 -78.8964 38° Northeast 326 375 27,000  Level Washington Center
11:19AM 38.2547 -78.8256 37° Northeast 326 375 27,000  Level Washington Center
11:20AM 38.3300 -78.7414 41° Northeast 326 375 27,000  Level Washington Center
11:21AM 38.4008 -78.6703 38° Northeast 326 375 27,000  Level Washington Center
11:22AM 38.4714 -78.5964 39° Northeast 326 375 27,000  Level Washington Center
11:23AM 38.5442 -78.5197 39° Northeast 332 382 27,000  Level Washington Center
11:24AM 38.6189 -78.4428 39° Northeast 332 382 27,000  Level Washington Center
11:25AM 38.6939 -78.3633 40° Northeast 332 382 27,000  Level Washington Center
11:26AM 38.7686 -78.2889 38° Northeast 332 382 27,000  Level Washington Center
11:27AM 38.8347 -78.2194 39° Northeast 332 382 27,000  Level Washington Center
11:28AM 38.9094 -78.1419 39° Northeast 332 382 27,000  Level Washington Center
11:29AM 38.9839 -78.0644 39° Northeast 332 382 27,000  Level Washington Center
11:31AM 39.1319 -77.9103 39° Northeast 353 406 27,000  Level New York Center
11:32AM 39.2008 -77.8394 39° Northeast 348 400 27,000  Level New York Center
11:33AM 39.2767 -77.7586 40° Northeast 348 400 27,000  Level New York Center
11:34AM 39.3525 -77.6772 40° Northeast 348 400 27,000  Level New York Center
11:35AM 39.4281 -77.5958 40° Northeast 348 400 27,000  Level New York Center
11:36AM 39.5036 -77.5144 40° Northeast 348 400 27,000  Level New York Center
11:37AM 39.5792 -77.4353 39° Northeast 348 400 27,000  Level New York Center
11:38AM 39.6525 -77.3533 41° Northeast 348 400 27,000  Level New York Center
11:39AM 39.7297 -77.2742 38° Northeast 348 400 27,000  Level New York Center
11:40AM 39.8033 -77.1889 42° Northeast 348 400 27,000  Level New York Center
11:41AM 39.8806 -77.1122 37° Northeast 348 400 27,000  Level New York Center
11:42AM 39.9558 -77.0269 41° Northeast 348 400 27,000  Level New York Center
11:43AM 40.0292 -76.9439 41° Northeast 343 395 27,000  Level New York Center
11:44AM 40.1019 -76.8661 39° Northeast 343 395 27,000  Level New York Center
11:45AM 40.1836 -76.7756 40° Northeast 343 395 27,000  Level New York Center
11:46AM 40.2544 -76.6947 41° Northeast 343 395 27,000  Level New York Center
11:47AM 40.3292 -76.6194 38° Northeast 343 395 27,000  Level New York Center
11:48AM 40.4000 -76.5381 41° Northeast 343 395 27,000  Level New York Center
11:49AM 40.4703 -76.4594 40° Northeast 343 395 27,000  Level New York Center
11:50AM 40.5411 -76.3778 41° Northeast 338 389 27,000  Level New York Center
11:51AM 40.6114 -76.3014 40° Northeast 338 389 27,000  Level New York Center
11:52AM 40.6839 -76.2197 40° Northeast 333 383 27,000  Level New York Center
11:53AM 40.7561 -76.1406 40° Northeast 328 377 27,000  Level New York Center
11:54AM 40.8244 -76.0608 41° Northeast 328 377 27,000  Level New York Center
11:55AM 40.8983 -75.9897 36° Northeast 328 377 27,000  Level New York Center
11:56AM 40.9797 -75.9383 25° Northeast 323 372 27,000  Level New York Center
11:57AM 41.0633 -75.8897 24° Northeast 323 372 27,000  Level New York Center
11:58AM 41.1467 -75.8408 24° Northeast 323 372 27,000  Level New York Center
11:59AM 41.2214 -75.7967 24° Northeast 323 372 27,000  Level New York Center
12:00PM 41.3153 -75.7431 23° Northeast 323 372 27,000  Level New York Center
12:01PM 41.3964 -75.6964 23° Northeast 318 366 27,000  Level New York Center
12:02PM 41.4539 -75.6147 47° Northeast 324 373 27,000  Level New York Center
12:03PM 41.5178 -75.5253 46° Northeast 324 373 27,000  Level New York Center
12:04PM 41.5817 -75.4411 45° Northeast 329 379 27,000  Level New York Center
12:05PM 41.6456 -75.3539 46° Northeast 329 379 27,000  Level New York Center
12:06PM 41.7344 -75.2303 46° Northeast 330 380 27,000  Level Boston Center
12:07PM 41.8092 -75.1244 47° Northeast 329 379 27,000  Level Boston Center
12:08PM 41.8725 -75.0394 45° Northeast 324 373 27,000  Level Boston Center
12:09PM 41.9358 -74.9511 46° Northeast 328 377 27,000  Level Boston Center
12:10PM 41.9869 -74.8531 55° Northeast 324 373 27,000  Level Boston Center
12:11PM 42.0153 -74.7411 71° East 318 366 27,000  Level Boston Center
12:12PM 42.0569 -74.6242 64° Northeast 322 371 27,000  Level Boston Center
12:13PM 42.0922 -74.5114 67° East 326 375 27,000  Level Boston Center
12:14PM 42.1236 -74.4183 66° East 328 377 27,000  Level Boston Center
12:15PM 42.1689 -74.2828 66° East 330 380 27,000  Level Boston Center
12:16PM 42.2056 -74.1683 67° East 331 381 27,000  Level Boston Center
12:17PM 42.2422 -74.0542 67° East 333 383 27,000  Level Boston Center
12:18PM 42.2794 -73.9414 66° East 332 382 27,000  Level Boston Center
12:19PM 42.3156 -73.8272 67° East 330 380 27,000  Level Boston Center
12:20PM 42.3525 -73.7142 66° East 330 380 27,000  Level Boston Center
12:21PM 42.3886 -73.6003 67° East 329 379 27,000  Level Boston Center
12:22PM 42.4250 -73.4858 67° East 330 380 27,000 -60 Level Boston Center
12:23PM 42.4617 -73.3703 67° East 333 383 26,900 -840 Descending Boston Center
12:24PM 42.4997 -73.2486 67° East 346 398 25,400 -1,500 Descending Boston Center
12:25PM 42.5386 -73.1250 67° East 352 405 23,900 -1,560 Descending Boston Center
12:26PM 42.5828 -72.9825 67° East 353 406 22,200 -1,440 Descending Boston Center
12:27PM 42.6194 -72.8647 67° East 341 392 21,000 -1,380 Descending Boston Center
12:28PM 42.6536 -72.7514 68° East 329 379 19,400 -1,500 Descending Boston Center
12:29PM 42.6867 -72.6469 67° East 334 384 18,000 -1,440 Descending Boston Center
12:30PM 42.7208 -72.5347 67° East 325 374 16,600 -1,560 Descending Boston Center
12:31PM 42.7564 -72.4206 67° East 326 375 14,900 -1,740 Descending Boston Center
12:33PM 42.7903 -72.3072 68° East 324 373 13,100 -1,980 Descending Boston Center
12:34PM 42.8139 -72.1781 76° East 301 346 10,900 -2,100 Descending Boston Center
12:35PM 42.8319 -72.0708 77° East 292 336 8,900 -1,980 Descending Boston Center
12:36PM 42.8481 -71.9767 77° East 236 272 6,900 -2,040 Descending Boston Center
12:37PM 42.8756 -71.9061 62° Northeast 209 241 4,900 -1,500 Descending Boston Center
12:38PM 42.8728 -71.8419 93° East 181 208 3,900 -480 Descending Boston Center
12:39PM 42.8572 -71.7936 114° Southeast 143 165 4,000  Climbing Boston Center
12:40PM 42.8400 -71.7392 113° Southeast 155 178 3,900 -600 Descending Boston Center
12:41PM 42.8250 -71.6897 112° Southeast 136 157 2,900 -840 Descending Boston Center
12:42PM 42.8125 -71.6444 111° Southeast 130 150 2,200 -600 Descending Boston Center
12:43PM 42.8114 -71.5997 92° East 125 144 1,800 -240 Descending Boston Center
12:44PM 42.8331 -71.5675 47° Northeast 120 138 1,800  Level Boston Center
12:45PM 42.8583 -71.5358 43° Northeast 122 140 1,900 -180 Climbing Boston Center
12:46PM 42.8817 -71.5069 42° Northeast 99 114 1,500 -420 Descending Boston Center
12:47PM 42.8997 -71.4844 42° Northeast 89 102 1,100 -480 Descending Boston Center
12:48PM 42.9186 -71.4606 43° Northeast 92 106 600 -360 Descending Boston Center
12:49PM 42.9339 -71.4422 41° Northeast 91 105 400 -240 Descending Boston Center